sensor_id;sensor_type;location;lat;lon;timestamp;temperature;humidity
10889;DHT22;5497;51.388;6.780;2022-09-29T00:00:53;6.60;99.90
10889;DHT22;5497;51.388;6.780;2022-09-29T00:03:20;6.60;99.90
10889;DHT22;5497;51.388;6.780;2022-09-29T00:05:50;6.60;99.90
10889;DHT22;5497;51.388;6.780;2022-09-29T00:08:17;6.60;99.90
10889;DHT22;5497;51.388;6.780;2022-09-29T00:10:44;6.60;99.90
10889;DHT22;5497;51.388;6.780;2022-09-29T00:13:12;6.60;99.90
10889;DHT22;5497;51.388;6.780;2022-09-29T00:15:39;6.60;99.90
10889;DHT22;5497;51.388;6.780;2022-09-29T00:18:06;6.50;99.90
10889;DHT22;5497;51.388;6.780;2022-09-29T00:20:33;6.50;99.90
10889;DHT22;5497;51.388;6.780;2022-09-29T00:23:01;6.60;99.90
10889;DHT22;5497;51.388;6.780;2022-09-29T00:25:28;6.60;99.90
10889;DHT22;5497;51.388;6.780;2022-09-29T00:27:56;6.60;99.90
10889;DHT22;5497;51.388;6.780;2022-09-29T00:30:22;6.60;99.90
10889;DHT22;5497;51.388;6.780;2022-09-29T00:32:49;6.60;99.90
10889;DHT22;5497;51.388;6.780;2022-09-29T00:35:16;6.60;99.90
10889;DHT22;5497;51.388;6.780;2022-09-29T00:37:43;6.60;99.90
10889;DHT22;5497;51.388;6.780;2022-09-29T00:40:11;6.60;99.90
10889;DHT22;5497;51.388;6.780;2022-09-29T00:42:38;6.60;99.90
10889;DHT22;5497;51.388;6.780;2022-09-29T00:45:11;6.60;99.90
10889;DHT22;5497;51.388;6.780;2022-09-29T00:47:40;6.60;99.90
10889;DHT22;5497;51.388;6.780;2022-09-29T00:50:11;6.60;99.90
10889;DHT22;5497;51.388;6.780;2022-09-29T00:52:39;6.60;99.90
10889;DHT22;5497;51.388;6.780;2022-09-29T00:55:08;6.70;99.90
10889;DHT22;5497;51.388;6.780;2022-09-29T00:57:38;6.70;99.90
10889;DHT22;5497;51.388;6.780;2022-09-29T01:00:10;6.60;99.90
10889;DHT22;5497;51.388;6.780;2022-09-29T01:02:39;6.60;99.90
10889;DHT22;5497;51.388;6.780;2022-09-29T01:05:08;6.50;99.90
10889;DHT22;5497;51.388;6.780;2022-09-29T01:07:37;6.50;99.90
10889;DHT22;5497;51.388;6.780;2022-09-29T01:10:05;6.50;99.90
10889;DHT22;5497;51.388;6.780;2022-09-29T01:12:34;6.50;99.90
10889;DHT22;5497;51.388;6.780;2022-09-29T01:15:02;6.40;99.90
10889;DHT22;5497;51.388;6.780;2022-09-29T01:17:29;6.40;99.90
10889;DHT22;5497;51.388;6.780;2022-09-29T01:19:59;6.40;99.90
10889;DHT22;5497;51.388;6.780;2022-09-29T01:22:35;6.50;99.90
10889;DHT22;5497;51.388;6.780;2022-09-29T01:25:12;6.50;99.90
10889;DHT22;5497;51.388;6.780;2022-09-29T01:28:00;6.50;99.90
10889;DHT22;5497;51.388;6.780;2022-09-29T01:30:42;6.50;99.90
10889;DHT22;5497;51.388;6.780;2022-09-29T01:33:16;6.50;99.90
10889;DHT22;5497;51.388;6.780;2022-09-29T01:35:47;6.40;99.90
10889;DHT22;5497;51.388;6.780;2022-09-29T01:38:18;6.40;99.90
10889;DHT22;5497;51.388;6.780;2022-09-29T01:40:47;6.40;99.90
10889;DHT22;5497;51.388;6.780;2022-09-29T01:43:17;6.40;99.90
10889;DHT22;5497;51.388;6.780;2022-09-29T01:45:47;6.40;99.90
10889;DHT22;5497;51.388;6.780;2022-09-29T01:48:16;6.40;99.90
10889;DHT22;5497;51.388;6.780;2022-09-29T01:50:44;6.40;99.90
10889;DHT22;5497;51.388;6.780;2022-09-29T01:53:13;6.30;99.90
10889;DHT22;5497;51.388;6.780;2022-09-29T01:55:41;6.30;99.90
10889;DHT22;5497;51.388;6.780;2022-09-29T01:58:09;6.30;99.90
10889;DHT22;5497;51.388;6.780;2022-09-29T02:00:38;6.30;99.90
10889;DHT22;5497;51.388;6.780;2022-09-29T02:03:08;6.30;99.90
10889;DHT22;5497;51.388;6.780;2022-09-29T02:05:37;6.30;99.90
10889;DHT22;5497;51.388;6.780;2022-09-29T02:08:06;6.30;99.90
10889;DHT22;5497;51.388;6.780;2022-09-29T02:10:36;6.30;99.90
10889;DHT22;5497;51.388;6.780;2022-09-29T02:13:05;6.20;99.90
10889;DHT22;5497;51.388;6.780;2022-09-29T02:15:33;6.20;99.90
10889;DHT22;5497;51.388;6.780;2022-09-29T02:18:02;6.20;99.90
10889;DHT22;5497;51.388;6.780;2022-09-29T02:20:34;6.10;99.90
10889;DHT22;5497;51.388;6.780;2022-09-29T02:23:00;6.10;99.90
10889;DHT22;5497;51.388;6.780;2022-09-29T02:25:27;6.10;99.90
10889;DHT22;5497;51.388;6.780;2022-09-29T02:27:54;6.00;99.90
10889;DHT22;5497;51.388;6.780;2022-09-29T02:30:21;6.00;99.90
10889;DHT22;5497;51.388;6.780;2022-09-29T02:32:48;5.90;99.90
10889;DHT22;5497;51.388;6.780;2022-09-29T02:35:15;5.90;99.90
10889;DHT22;5497;51.388;6.780;2022-09-29T02:37:56;5.90;99.90
10889;DHT22;5497;51.388;6.780;2022-09-29T02:40:31;5.90;99.90
10889;DHT22;5497;51.388;6.780;2022-09-29T02:43:11;5.90;99.90
10889;DHT22;5497;51.388;6.780;2022-09-29T02:45:42;5.90;99.90
10889;DHT22;5497;51.388;6.780;2022-09-29T02:48:20;5.90;99.90
10889;DHT22;5497;51.388;6.780;2022-09-29T02:50:51;5.90;99.90
10889;DHT22;5497;51.388;6.780;2022-09-29T02:53:27;6.00;99.90
10889;DHT22;5497;51.388;6.780;2022-09-29T02:55:56;6.00;99.90
10889;DHT22;5497;51.388;6.780;2022-09-29T02:58:26;6.10;99.90
10889;DHT22;5497;51.388;6.780;2022-09-29T03:00:55;6.10;99.90
10889;DHT22;5497;51.388;6.780;2022-09-29T03:03:22;6.10;99.90
10889;DHT22;5497;51.388;6.780;2022-09-29T03:05:49;6.10;99.90
10889;DHT22;5497;51.388;6.780;2022-09-29T03:08:16;6.10;99.90
10889;DHT22;5497;51.388;6.780;2022-09-29T03:10:45;6.10;99.90
10889;DHT22;5497;51.388;6.780;2022-09-29T03:13:11;6.10;99.90
10889;DHT22;5497;51.388;6.780;2022-09-29T03:15:38;6.10;99.90
10889;DHT22;5497;51.388;6.780;2022-09-29T03:18:05;6.10;99.90
10889;DHT22;5497;51.388;6.780;2022-09-29T03:20:32;6.10;99.90
10889;DHT22;5497;51.388;6.780;2022-09-29T03:22:59;6.10;99.90
10889;DHT22;5497;51.388;6.780;2022-09-29T03:25:26;6.10;99.90
10889;DHT22;5497;51.388;6.780;2022-09-29T03:27:54;6.10;99.90
10889;DHT22;5497;51.388;6.780;2022-09-29T03:30:21;6.10;99.90
10889;DHT22;5497;51.388;6.780;2022-09-29T03:32:48;6.10;99.90
10889;DHT22;5497;51.388;6.780;2022-09-29T03:35:15;6.10;99.90
10889;DHT22;5497;51.388;6.780;2022-09-29T03:37:42;6.10;99.90
10889;DHT22;5497;51.388;6.780;2022-09-29T03:40:09;6.10;99.90
10889;DHT22;5497;51.388;6.780;2022-09-29T03:42:36;6.10;99.90
10889;DHT22;5497;51.388;6.780;2022-09-29T03:45:05;6.10;99.90
10889;DHT22;5497;51.388;6.780;2022-09-29T03:47:32;6.10;99.90
10889;DHT22;5497;51.388;6.780;2022-09-29T03:49:59;6.10;99.90
10889;DHT22;5497;51.388;6.780;2022-09-29T03:52:26;6.00;99.90
10889;DHT22;5497;51.388;6.780;2022-09-29T03:54:53;6.00;99.90
10889;DHT22;5497;51.388;6.780;2022-09-29T03:57:20;5.90;99.90
10889;DHT22;5497;51.388;6.780;2022-09-29T03:59:47;5.90;99.90
10889;DHT22;5497;51.388;6.780;2022-09-29T04:02:15;5.80;99.90
10889;DHT22;5497;51.388;6.780;2022-09-29T04:04:44;5.80;99.90
10889;DHT22;5497;51.388;6.780;2022-09-29T04:07:11;5.70;99.90
10889;DHT22;5497;51.388;6.780;2022-09-29T04:09:37;5.70;99.90
10889;DHT22;5497;51.388;6.780;2022-09-29T04:12:04;5.70;99.90
10889;DHT22;5497;51.388;6.780;2022-09-29T04:14:31;5.70;99.90
10889;DHT22;5497;51.388;6.780;2022-09-29T04:16:58;5.70;99.90
10889;DHT22;5497;51.388;6.780;2022-09-29T04:19:26;5.70;99.90
10889;DHT22;5497;51.388;6.780;2022-09-29T04:21:53;5.60;99.90
10889;DHT22;5497;51.388;6.780;2022-09-29T04:24:20;5.60;99.90
10889;DHT22;5497;51.388;6.780;2022-09-29T04:26:47;5.50;99.90
10889;DHT22;5497;51.388;6.780;2022-09-29T04:29:14;5.50;99.90
10889;DHT22;5497;51.388;6.780;2022-09-29T04:31:41;5.50;99.90
10889;DHT22;5497;51.388;6.780;2022-09-29T04:34:10;5.50;99.90
10889;DHT22;5497;51.388;6.780;2022-09-29T04:36:38;5.50;99.90
10889;DHT22;5497;51.388;6.780;2022-09-29T04:39:06;5.50;99.90
10889;DHT22;5497;51.388;6.780;2022-09-29T04:41:33;5.50;99.90
10889;DHT22;5497;51.388;6.780;2022-09-29T04:44:01;5.50;99.90
10889;DHT22;5497;51.388;6.780;2022-09-29T04:46:28;5.50;99.90
10889;DHT22;5497;51.388;6.780;2022-09-29T04:48:55;5.50;99.90
10889;DHT22;5497;51.388;6.780;2022-09-29T04:51:22;5.50;99.90
10889;DHT22;5497;51.388;6.780;2022-09-29T04:53:50;5.50;99.90
10889;DHT22;5497;51.388;6.780;2022-09-29T04:56:17;5.50;99.90
10889;DHT22;5497;51.388;6.780;2022-09-29T04:58:44;5.40;99.90
10889;DHT22;5497;51.388;6.780;2022-09-29T05:01:11;5.40;99.90
10889;DHT22;5497;51.388;6.780;2022-09-29T05:03:38;5.50;99.90
10889;DHT22;5497;51.388;6.780;2022-09-29T05:06:05;5.50;99.90
10889;DHT22;5497;51.388;6.780;2022-09-29T05:08:33;5.50;99.90
10889;DHT22;5497;51.388;6.780;2022-09-29T05:11:03;5.50;99.90
10889;DHT22;5497;51.388;6.780;2022-09-29T05:13:30;5.50;99.90
10889;DHT22;5497;51.388;6.780;2022-09-29T05:18:27;5.60;99.90
10889;DHT22;5497;51.388;6.780;2022-09-29T05:20:55;5.60;99.90
10889;DHT22;5497;51.388;6.780;2022-09-29T05:23:21;5.50;99.90
10889;DHT22;5497;51.388;6.780;2022-09-29T05:25:48;5.50;99.90
10889;DHT22;5497;51.388;6.780;2022-09-29T05:28:17;5.40;99.90
10889;DHT22;5497;51.388;6.780;2022-09-29T05:30:43;5.50;99.90
10889;DHT22;5497;51.388;6.780;2022-09-29T05:33:10;5.40;99.90
10889;DHT22;5497;51.388;6.780;2022-09-29T05:35:37;5.40;99.90
10889;DHT22;5497;51.388;6.780;2022-09-29T05:38:04;5.50;99.90
10889;DHT22;5497;51.388;6.780;2022-09-29T05:40:32;5.40;99.90
10889;DHT22;5497;51.388;6.780;2022-09-29T05:42:59;5.40;99.90
10889;DHT22;5497;51.388;6.780;2022-09-29T05:45:27;5.50;99.90
10889;DHT22;5497;51.388;6.780;2022-09-29T05:47:54;5.50;99.90
10889;DHT22;5497;51.388;6.780;2022-09-29T05:50:21;5.50;99.90
10889;DHT22;5497;51.388;6.780;2022-09-29T05:52:48;5.50;99.90
10889;DHT22;5497;51.388;6.780;2022-09-29T05:55:17;5.50;99.90
10889;DHT22;5497;51.388;6.780;2022-09-29T05:57:46;5.50;99.90
10889;DHT22;5497;51.388;6.780;2022-09-29T06:00:13;5.60;99.90
10889;DHT22;5497;51.388;6.780;2022-09-29T06:02:42;5.60;99.90
10889;DHT22;5497;51.388;6.780;2022-09-29T06:05:08;5.70;99.90
10889;DHT22;5497;51.388;6.780;2022-09-29T06:07:35;5.70;99.90
10889;DHT22;5497;51.388;6.780;2022-09-29T06:10:02;5.90;99.90
10889;DHT22;5497;51.388;6.780;2022-09-29T06:12:32;5.90;99.90
10889;DHT22;5497;51.388;6.780;2022-09-29T06:14:59;6.00;99.90
10889;DHT22;5497;51.388;6.780;2022-09-29T06:17:27;6.20;99.90
10889;DHT22;5497;51.388;6.780;2022-09-29T06:19:55;6.70;99.90
10889;DHT22;5497;51.388;6.780;2022-09-29T06:22:22;8.10;99.90
10889;DHT22;5497;51.388;6.780;2022-09-29T06:24:49;8.20;99.90
10889;DHT22;5497;51.388;6.780;2022-09-29T06:27:16;8.90;99.90
10889;DHT22;5497;51.388;6.780;2022-09-29T06:29:43;9.60;99.90
10889;DHT22;5497;51.388;6.780;2022-09-29T06:32:10;10.30;99.90
10889;DHT22;5497;51.388;6.780;2022-09-29T06:34:38;10.80;99.90
10889;DHT22;5497;51.388;6.780;2022-09-29T06:37:27;11.50;99.90
10889;DHT22;5497;51.388;6.780;2022-09-29T06:40:05;12.10;99.90
10889;DHT22;5497;51.388;6.780;2022-09-29T06:42:33;12.50;99.90
10889;DHT22;5497;51.388;6.780;2022-09-29T06:45:01;13.00;99.90
10889;DHT22;5497;51.388;6.780;2022-09-29T06:47:28;13.40;99.90
10889;DHT22;5497;51.388;6.780;2022-09-29T06:49:55;13.80;99.90
10889;DHT22;5497;51.388;6.780;2022-09-29T06:52:24;14.20;99.90
10889;DHT22;5497;51.388;6.780;2022-09-29T06:54:52;14.60;99.90
10889;DHT22;5497;51.388;6.780;2022-09-29T06:57:19;15.00;99.90
10889;DHT22;5497;51.388;6.780;2022-09-29T06:59:46;15.30;99.90
10889;DHT22;5497;51.388;6.780;2022-09-29T07:02:13;15.60;99.90
10889;DHT22;5497;51.388;6.780;2022-09-29T07:04:40;15.90;99.90
10889;DHT22;5497;51.388;6.780;2022-09-29T07:07:08;16.10;99.90
10889;DHT22;5497;51.388;6.780;2022-09-29T07:09:35;16.30;99.90
10889;DHT22;5497;51.388;6.780;2022-09-29T07:12:06;16.50;99.90
10889;DHT22;5497;51.388;6.780;2022-09-29T07:14:33;16.70;99.90
10889;DHT22;5497;51.388;6.780;2022-09-29T07:17:00;16.80;99.90
10889;DHT22;5497;51.388;6.780;2022-09-29T07:19:26;17.00;99.90
10889;DHT22;5497;51.388;6.780;2022-09-29T07:21:53;17.10;99.90
10889;DHT22;5497;51.388;6.780;2022-09-29T07:24:20;17.20;99.90
10889;DHT22;5497;51.388;6.780;2022-09-29T07:26:48;17.30;99.90
10889;DHT22;5497;51.388;6.780;2022-09-29T07:29:16;17.50;99.90
10889;DHT22;5497;51.388;6.780;2022-09-29T07:31:43;17.70;99.90
10889;DHT22;5497;51.388;6.780;2022-09-29T07:34:11;17.80;99.90
10889;DHT22;5497;51.388;6.780;2022-09-29T07:36:37;17.80;99.90
10889;DHT22;5497;51.388;6.780;2022-09-29T07:39:04;17.80;99.90
10889;DHT22;5497;51.388;6.780;2022-09-29T07:41:31;17.80;99.90
10889;DHT22;5497;51.388;6.780;2022-09-29T07:43:58;17.90;99.90
10889;DHT22;5497;51.388;6.780;2022-09-29T07:46:27;18.00;99.90
10889;DHT22;5497;51.388;6.780;2022-09-29T07:48:53;17.90;99.90
10889;DHT22;5497;51.388;6.780;2022-09-29T07:51:20;18.00;99.90
10889;DHT22;5497;51.388;6.780;2022-09-29T07:53:47;18.10;99.90
10889;DHT22;5497;51.388;6.780;2022-09-29T07:56:15;18.10;99.90
10889;DHT22;5497;51.388;6.780;2022-09-29T07:58:43;18.30;99.90
10889;DHT22;5497;51.388;6.780;2022-09-29T08:01:10;18.40;99.90
10889;DHT22;5497;51.388;6.780;2022-09-29T08:03:40;18.50;99.90
10889;DHT22;5497;51.388;6.780;2022-09-29T08:06:07;18.50;99.90
10889;DHT22;5497;51.388;6.780;2022-09-29T08:08:34;18.50;99.90
10889;DHT22;5497;51.388;6.780;2022-09-29T08:11:02;18.50;99.90
10889;DHT22;5497;51.388;6.780;2022-09-29T08:13:29;18.40;99.90
10889;DHT22;5497;51.388;6.780;2022-09-29T08:15:57;18.30;99.90
10889;DHT22;5497;51.388;6.780;2022-09-29T08:18:25;18.20;99.90
10889;DHT22;5497;51.388;6.780;2022-09-29T08:20:53;18.20;99.90
10889;DHT22;5497;51.388;6.780;2022-09-29T08:23:20;18.10;99.90
10889;DHT22;5497;51.388;6.780;2022-09-29T08:25:47;18.10;99.90
10889;DHT22;5497;51.388;6.780;2022-09-29T08:28:14;18.00;99.90
10889;DHT22;5497;51.388;6.780;2022-09-29T08:30:41;18.00;99.90
10889;DHT22;5497;51.388;6.780;2022-09-29T08:33:08;18.00;99.90
10889;DHT22;5497;51.388;6.780;2022-09-29T08:35:39;18.00;99.90
10889;DHT22;5497;51.388;6.780;2022-09-29T08:38:07;18.10;99.90
10889;DHT22;5497;51.388;6.780;2022-09-29T08:40:34;18.10;99.90
10889;DHT22;5497;51.388;6.780;2022-09-29T08:43:03;18.10;99.90
10889;DHT22;5497;51.388;6.780;2022-09-29T08:45:36;18.20;99.90
10889;DHT22;5497;51.388;6.780;2022-09-29T08:48:04;18.10;99.90
10889;DHT22;5497;51.388;6.780;2022-09-29T08:50:35;18.00;99.90
10889;DHT22;5497;51.388;6.780;2022-09-29T08:53:04;18.00;99.90
10889;DHT22;5497;51.388;6.780;2022-09-29T08:55:35;18.00;99.90
10889;DHT22;5497;51.388;6.780;2022-09-29T08:58:04;18.00;99.90
10889;DHT22;5497;51.388;6.780;2022-09-29T09:00:37;17.90;99.90
10889;DHT22;5497;51.388;6.780;2022-09-29T09:03:08;17.80;99.90
10889;DHT22;5497;51.388;6.780;2022-09-29T09:08:21;17.70;99.90
10889;DHT22;5497;51.388;6.780;2022-09-29T09:10:55;17.30;99.90
10889;DHT22;5497;51.388;6.780;2022-09-29T09:13:32;17.20;99.90
10889;DHT22;5497;51.388;6.780;2022-09-29T09:16:13;16.80;99.90
10889;DHT22;5497;51.388;6.780;2022-09-29T09:18:49;16.30;99.90
10889;DHT22;5497;51.388;6.780;2022-09-29T09:21:22;15.50;99.90
10889;DHT22;5497;51.388;6.780;2022-09-29T09:23:54;15.50;99.90
10889;DHT22;5497;51.388;6.780;2022-09-29T09:26:24;15.20;99.90
10889;DHT22;5497;51.388;6.780;2022-09-29T09:28:57;13.30;99.90
10889;DHT22;5497;51.388;6.780;2022-09-29T09:31:28;14.70;99.90
10889;DHT22;5497;51.388;6.780;2022-09-29T09:33:59;14.60;99.90
10889;DHT22;5497;51.388;6.780;2022-09-29T09:36:28;14.50;99.90
10889;DHT22;5497;51.388;6.780;2022-09-29T09:38:57;14.30;99.90
10889;DHT22;5497;51.388;6.780;2022-09-29T09:41:27;14.30;99.90
10889;DHT22;5497;51.388;6.780;2022-09-29T09:43:55;14.40;99.90
10889;DHT22;5497;51.388;6.780;2022-09-29T09:46:25;14.40;99.90
10889;DHT22;5497;51.388;6.780;2022-09-29T09:48:57;14.50;99.90
10889;DHT22;5497;51.388;6.780;2022-09-29T09:51:34;14.50;99.90
10889;DHT22;5497;51.388;6.780;2022-09-29T09:54:03;14.60;99.90
10889;DHT22;5497;51.388;6.780;2022-09-29T09:56:38;14.70;99.90
10889;DHT22;5497;51.388;6.780;2022-09-29T09:59:10;14.80;99.90
10889;DHT22;5497;51.388;6.780;2022-09-29T10:01:38;14.90;99.90
10889;DHT22;5497;51.388;6.780;2022-09-29T10:04:07;15.00;99.90
10889;DHT22;5497;51.388;6.780;2022-09-29T10:06:35;15.10;99.90
10889;DHT22;5497;51.388;6.780;2022-09-29T10:09:02;15.10;99.90
10889;DHT22;5497;51.388;6.780;2022-09-29T10:11:30;15.20;99.90
10889;DHT22;5497;51.388;6.780;2022-09-29T10:13:59;15.20;99.90
10889;DHT22;5497;51.388;6.780;2022-09-29T10:16:30;15.30;99.90
10889;DHT22;5497;51.388;6.780;2022-09-29T10:18:59;17.40;99.90
10889;DHT22;5497;51.388;6.780;2022-09-29T10:21:34;15.60;99.90
10889;DHT22;5497;51.388;6.780;2022-09-29T10:24:02;15.80;99.90
10889;DHT22;5497;51.388;6.780;2022-09-29T10:26:31;16.00;99.90
10889;DHT22;5497;51.388;6.780;2022-09-29T10:29:02;16.50;99.90
10889;DHT22;5497;51.388;6.780;2022-09-29T10:31:30;15.20;99.90
10889;DHT22;5497;51.388;6.780;2022-09-29T10:33:59;16.70;99.90
10889;DHT22;5497;51.388;6.780;2022-09-29T10:36:28;16.80;99.90
10889;DHT22;5497;51.388;6.780;2022-09-29T10:38:55;17.10;99.90
10889;DHT22;5497;51.388;6.780;2022-09-29T10:41:23;17.10;99.90
10889;DHT22;5497;51.388;6.780;2022-09-29T10:43:50;17.30;99.90
10889;DHT22;5497;51.388;6.780;2022-09-29T10:46:36;17.40;99.90
10889;DHT22;5497;51.388;6.780;2022-09-29T10:49:07;17.50;99.90
10889;DHT22;5497;51.388;6.780;2022-09-29T10:51:34;17.50;99.90
10889;DHT22;5497;51.388;6.780;2022-09-29T10:54:05;17.70;99.90
10889;DHT22;5497;51.388;6.780;2022-09-29T10:56:33;17.90;99.90
10889;DHT22;5497;51.388;6.780;2022-09-29T10:59:00;18.70;99.90
10889;DHT22;5497;51.388;6.780;2022-09-29T11:01:28;18.70;99.90
10889;DHT22;5497;51.388;6.780;2022-09-29T11:03:57;19.00;99.90
10889;DHT22;5497;51.388;6.780;2022-09-29T11:06:28;19.40;99.90
10889;DHT22;5497;51.388;6.780;2022-09-29T11:08:56;19.80;99.90
10889;DHT22;5497;51.388;6.780;2022-09-29T11:11:24;20.10;99.90
10889;DHT22;5497;51.388;6.780;2022-09-29T11:13:51;20.30;99.90
10889;DHT22;5497;51.388;6.780;2022-09-29T11:16:22;20.70;99.90
10889;DHT22;5497;51.388;6.780;2022-09-29T11:18:50;20.90;99.90
10889;DHT22;5497;51.388;6.780;2022-09-29T11:24:02;21.30;99.90
10889;DHT22;5497;51.388;6.780;2022-09-29T11:26:31;21.50;99.90
10889;DHT22;5497;51.388;6.780;2022-09-29T11:29:10;21.80;99.90
10889;DHT22;5497;51.388;6.780;2022-09-29T11:31:45;21.90;99.90
10889;DHT22;5497;51.388;6.780;2022-09-29T11:34:29;22.10;99.90
10889;DHT22;5497;51.388;6.780;2022-09-29T11:36:59;22.20;99.90
10889;DHT22;5497;51.388;6.780;2022-09-29T11:39:36;22.40;99.90
10889;DHT22;5497;51.388;6.780;2022-09-29T11:42:17;22.40;99.90
10889;DHT22;5497;51.388;6.780;2022-09-29T11:44:53;22.60;99.90
10889;DHT22;5497;51.388;6.780;2022-09-29T11:47:28;22.50;99.90
10889;DHT22;5497;51.388;6.780;2022-09-29T11:50:02;22.10;99.90
10889;DHT22;5497;51.388;6.780;2022-09-29T11:52:41;21.70;99.90
10889;DHT22;5497;51.388;6.780;2022-09-29T11:55:18;21.60;99.90
10889;DHT22;5497;51.388;6.780;2022-09-29T11:57:56;21.60;99.90
10889;DHT22;5497;51.388;6.780;2022-09-29T12:00:33;21.90;99.90
10889;DHT22;5497;51.388;6.780;2022-09-29T12:03:14;22.00;99.90
10889;DHT22;5497;51.388;6.780;2022-09-29T12:06:17;22.10;99.90
10889;DHT22;5497;51.388;6.780;2022-09-29T12:08:52;22.20;99.90
10889;DHT22;5497;51.388;6.780;2022-09-29T12:11:24;22.30;99.90
10889;DHT22;5497;51.388;6.780;2022-09-29T12:14:00;22.40;99.90
10889;DHT22;5497;51.388;6.780;2022-09-29T12:16:29;22.50;99.90
10889;DHT22;5497;51.388;6.780;2022-09-29T12:21:26;22.40;99.90
10889;DHT22;5497;51.388;6.780;2022-09-29T12:23:54;22.50;99.90
10889;DHT22;5497;51.388;6.780;2022-09-29T12:26:22;22.60;99.90
10889;DHT22;5497;51.388;6.780;2022-09-29T12:28:51;22.70;99.90
10889;DHT22;5497;51.388;6.780;2022-09-29T12:31:20;22.80;99.90
10889;DHT22;5497;51.388;6.780;2022-09-29T12:33:49;22.90;99.90
10889;DHT22;5497;51.388;6.780;2022-09-29T12:36:31;23.00;99.90
10889;DHT22;5497;51.388;6.780;2022-09-29T12:39:32;23.00;99.90
10889;DHT22;5497;51.388;6.780;2022-09-29T12:42:05;23.10;99.90
10889;DHT22;5497;51.388;6.780;2022-09-29T12:44:36;23.10;99.90
10889;DHT22;5497;51.388;6.780;2022-09-29T12:47:07;23.10;99.90
10889;DHT22;5497;51.388;6.780;2022-09-29T12:49:36;23.20;99.90
10889;DHT22;5497;51.388;6.780;2022-09-29T12:52:08;23.20;99.90
10889;DHT22;5497;51.388;6.780;2022-09-29T12:54:37;23.10;99.90
10889;DHT22;5497;51.388;6.780;2022-09-29T12:57:08;22.80;99.90
10889;DHT22;5497;51.388;6.780;2022-09-29T12:59:38;22.60;99.90
10889;DHT22;5497;51.388;6.780;2022-09-29T13:02:27;22.30;99.90
10889;DHT22;5497;51.388;6.780;2022-09-29T13:05:08;22.20;99.90
10889;DHT22;5497;51.388;6.780;2022-09-29T13:07:45;22.00;99.90
10889;DHT22;5497;51.388;6.780;2022-09-29T13:10:27;21.70;99.90
10889;DHT22;5497;51.388;6.780;2022-09-29T13:13:04;21.40;99.90
10889;DHT22;5497;51.388;6.780;2022-09-29T13:15:43;21.20;99.90
10889;DHT22;5497;51.388;6.780;2022-09-29T13:18:16;20.90;99.90
10889;DHT22;5497;51.388;6.780;2022-09-29T13:20:52;20.70;99.90
10889;DHT22;5497;51.388;6.780;2022-09-29T13:23:26;20.50;99.90
10889;DHT22;5497;51.388;6.780;2022-09-29T13:26:00;20.30;99.90
10889;DHT22;5497;51.388;6.780;2022-09-29T13:28:32;20.10;99.90
10889;DHT22;5497;51.388;6.780;2022-09-29T13:31:02;19.90;99.90
10889;DHT22;5497;51.388;6.780;2022-09-29T13:33:30;19.70;99.90
10889;DHT22;5497;51.388;6.780;2022-09-29T13:35:57;19.50;99.90
10889;DHT22;5497;51.388;6.780;2022-09-29T13:38:24;19.30;99.90
10889;DHT22;5497;51.388;6.780;2022-09-29T13:41:14;19.10;99.90
10889;DHT22;5497;51.388;6.780;2022-09-29T13:46:35;19.00;99.90
10889;DHT22;5497;51.388;6.780;2022-09-29T13:49:02;18.90;99.90
10889;DHT22;5497;51.388;6.780;2022-09-29T13:54:33;18.70;99.90
10889;DHT22;5497;51.388;6.780;2022-09-29T14:02:58;18.50;99.90
10889;DHT22;5497;51.388;6.780;2022-09-29T14:08:12;18.40;99.90
10889;DHT22;5497;51.388;6.780;2022-09-29T14:10:39;18.40;99.90
10889;DHT22;5497;51.388;6.780;2022-09-29T14:13:10;18.60;99.90
10889;DHT22;5497;51.388;6.780;2022-09-29T14:15:40;18.70;99.90
10889;DHT22;5497;51.388;6.780;2022-09-29T14:18:13;19.00;99.90
10889;DHT22;5497;51.388;6.780;2022-09-29T14:20:55;19.40;99.90
10889;DHT22;5497;51.388;6.780;2022-09-29T14:26:04;19.90;99.90
10889;DHT22;5497;51.388;6.780;2022-09-29T14:28:35;20.10;99.90
10889;DHT22;5497;51.388;6.780;2022-09-29T14:31:04;20.20;99.90
10889;DHT22;5497;51.388;6.780;2022-09-29T14:33:46;20.20;99.90
10889;DHT22;5497;51.388;6.780;2022-09-29T14:36:17;20.00;99.90
10889;DHT22;5497;51.388;6.780;2022-09-29T14:38:45;19.80;99.90
10889;DHT22;5497;51.388;6.780;2022-09-29T14:41:25;19.70;99.90
10889;DHT22;5497;51.388;6.780;2022-09-29T14:43:57;19.60;99.90
10889;DHT22;5497;51.388;6.780;2022-09-29T14:46:29;19.50;99.90
10889;DHT22;5497;51.388;6.780;2022-09-29T14:52:35;19.30;99.90
10889;DHT22;5497;51.388;6.780;2022-09-29T14:55:09;19.20;99.90
10889;DHT22;5497;51.388;6.780;2022-09-29T15:00:27;18.80;99.90
10889;DHT22;5497;51.388;6.780;2022-09-29T15:02:58;18.60;99.90
10889;DHT22;5497;51.388;6.780;2022-09-29T15:05:25;18.30;99.90
10889;DHT22;5497;51.388;6.780;2022-09-29T15:07:54;18.10;99.90
10889;DHT22;5497;51.388;6.780;2022-09-29T15:10:23;19.40;99.90
10889;DHT22;5497;51.388;6.780;2022-09-29T15:12:50;18.00;99.90
10889;DHT22;5497;51.388;6.780;2022-09-29T15:15:26;18.10;99.90
10889;DHT22;5497;51.388;6.780;2022-09-29T15:17:54;17.90;99.90
10889;DHT22;5497;51.388;6.780;2022-09-29T15:20:26;17.80;99.90
10889;DHT22;5497;51.388;6.780;2022-09-29T15:23:01;17.80;99.90
10889;DHT22;5497;51.388;6.780;2022-09-29T15:25:29;17.80;99.90
10889;DHT22;5497;51.388;6.780;2022-09-29T15:27:58;17.80;99.90
10889;DHT22;5497;51.388;6.780;2022-09-29T15:30:25;17.70;99.90
10889;DHT22;5497;51.388;6.780;2022-09-29T15:32:54;17.60;99.90
10889;DHT22;5497;51.388;6.780;2022-09-29T15:35:28;17.50;99.90
10889;DHT22;5497;51.388;6.780;2022-09-29T15:37:56;18.60;99.90
10889;DHT22;5497;51.388;6.780;2022-09-29T15:40:25;17.40;99.90
10889;DHT22;5497;51.388;6.780;2022-09-29T15:42:52;18.60;99.90
10889;DHT22;5497;51.388;6.780;2022-09-29T15:45:21;17.10;99.90
10889;DHT22;5497;51.388;6.780;2022-09-29T15:47:53;17.40;99.90
10889;DHT22;5497;51.388;6.780;2022-09-29T15:50:23;16.70;99.90
10889;DHT22;5497;51.388;6.780;2022-09-29T15:52:50;17.50;99.90
10889;DHT22;5497;51.388;6.780;2022-09-29T15:55:17;16.30;99.90
10889;DHT22;5497;51.388;6.780;2022-09-29T15:57:46;17.60;99.90
10889;DHT22;5497;51.388;6.780;2022-09-29T16:03:05;16.10;99.90
10889;DHT22;5497;51.388;6.780;2022-09-29T16:05:36;16.30;99.90
10889;DHT22;5497;51.388;6.780;2022-09-29T16:08:05;16.00;99.90
10889;DHT22;5497;51.388;6.780;2022-09-29T16:10:36;16.00;99.90
10889;DHT22;5497;51.388;6.780;2022-09-29T16:13:07;16.00;99.90
10889;DHT22;5497;51.388;6.780;2022-09-29T16:15:41;15.90;99.90
10889;DHT22;5497;51.388;6.780;2022-09-29T16:18:09;15.90;99.90
10889;DHT22;5497;51.388;6.780;2022-09-29T16:20:41;15.80;99.90
10889;DHT22;5497;51.388;6.780;2022-09-29T16:23:14;15.80;99.90
10889;DHT22;5497;51.388;6.780;2022-09-29T16:25:42;15.70;99.90
10889;DHT22;5497;51.388;6.780;2022-09-29T16:28:21;15.70;99.90
10889;DHT22;5497;51.388;6.780;2022-09-29T16:30:59;15.60;99.90
10889;DHT22;5497;51.388;6.780;2022-09-29T16:33:26;15.50;99.90
10889;DHT22;5497;51.388;6.780;2022-09-29T16:35:57;15.40;99.90
10889;DHT22;5497;51.388;6.780;2022-09-29T16:38:29;15.40;99.90
10889;DHT22;5497;51.388;6.780;2022-09-29T16:41:06;15.20;99.90
10889;DHT22;5497;51.388;6.780;2022-09-29T16:43:35;15.10;99.90
10889;DHT22;5497;51.388;6.780;2022-09-29T16:46:06;15.00;99.90